Bujumbura, Burundi
Current Conditions -  °F | °C
As of 8:00 AM on Tuesday 21 Oct 2014 (Local Time) from HRYR Reporting Station
Broken Clouds Broken Clouds  
Wind Chill: 66°   Ceiling: 30000
Heat Index: 66°   Visibility: 6mi
Dew Point: 63°   Wind: 0mph
Humidity: 88%   Direction: NA
Pressure: 30.18"   Gusts: NA
Location:  3.37°S, 29.35°E
Report Text: HRYR 210600Z 00000KT 9999 FEW025 BKN300 19/17 Q1022 NOSIG
Loading
Personal Weather Stations






























Interactive Weather Map
Tropical Storm Tracking
New forecast layout! Learn more

10-Day Weather Forecast

Advertisements
Track Severe Weather on mobile